Time;durP1;ratioP1;P1;durP2;ratioP2;P2;SDS_P1;SDS_P2;PMS_P1;PMS_P2;Temp;Humidity;BMP_temperature;BMP_pressure;BME280_temperature;BME280_humidity;BME280_pressure;Samples;Min_cycle;Max_cycle;Signal;HPM_P1;HPM_P2
2023/12/02 00:00:25;;;;;;;5.43;4.93;;;16.20;42.80;;;;;;5013314;28;20216;-80
2023/12/02 00:02:54;;;;;;;5.30;4.80;;;16.20;42.80;;;;;;5013001;28;20240;-80
2023/12/02 00:05:21;;;;;;;4.80;4.40;;;16.20;42.80;;;;;;5013614;28;20201;-80
2023/12/02 00:07:48;;;;;;;4.80;4.40;;;16.20;42.80;;;;;;5012958;28;20608;-81
2023/12/02 00:10:16;;;;;;;5.60;5.10;;;16.20;42.80;;;;;;5012619;28;20205;-80
2023/12/02 00:12:42;;;;;;;5.75;5.22;;;16.20;42.70;;;;;;5016470;28;20221;-80
2023/12/02 00:15:10;;;;;;;4.78;4.30;;;16.10;42.60;;;;;;5020942;28;20197;-80
2023/12/02 00:17:37;;;;;;;4.97;4.57;;;16.20;42.70;;;;;;5018444;28;20311;-80
2023/12/02 00:20:07;;;;;;;5.57;5.07;;;16.20;42.60;;;;;;5004077;28;20201;-80
2023/12/02 00:22:34;;;;;;;5.68;5.18;;;16.30;42.70;;;;;;5018718;28;20221;-80
2023/12/02 00:25:02;;;;;;;5.22;4.72;;;16.20;42.70;;;;;;5017249;28;20576;-80
2023/12/02 00:27:29;;;;;;;5.88;5.30;;;16.30;42.80;;;;;;5016129;28;20219;-80
2023/12/02 00:29:56;;;;;;;5.20;4.70;;;16.20;42.70;;;;;;5016054;28;20204;-80
2023/12/02 00:32:23;;;;;;;5.25;4.75;;;16.20;42.60;;;;;;5016136;28;20208;-80
2023/12/02 00:34:50;;;;;;;5.25;4.75;;;16.30;42.80;;;;;;5016836;28;20223;-81
2023/12/02 00:37:19;;;;;;;4.85;4.38;;;16.20;42.70;;;;;;5016665;28;20220;-81
2023/12/02 00:39:45;;;;;;;4.85;4.45;;;16.20;42.80;;;;;;5016445;28;20298;-80
2023/12/02 00:42:12;;;;;;;6.10;5.60;;;16.20;42.70;;;;;;5016338;28;20565;-80
2023/12/02 00:44:40;;;;;;;4.90;3.97;;;16.20;42.70;;;;;;5015779;28;20565;-80
2023/12/02 00:47:06;;;;;;;5.45;4.95;;;16.20;42.70;;;;;;5016259;28;20564;-80
2023/12/02 00:49:34;;;;;;;5.50;5.00;;;16.20;42.70;;;;;;5016421;28;20197;-81
2023/12/02 00:52:00;;;;;;;5.45;4.95;;;16.20;42.70;;;;;;5015597;28;20224;-81
2023/12/02 00:54:33;;;;;;;5.40;4.90;;;16.20;42.60;;;;;;5015515;28;20220;-80
2023/12/02 00:57:00;;;;;;;5.15;4.68;;;16.20;42.70;;;;;;5015522;28;20726;-80
2023/12/02 00:59:28;;;;;;;5.20;4.70;;;16.20;42.80;;;;;;4999559;28;20575;-80
2023/12/02 01:01:55;;;;;;;5.10;4.60;;;16.20;42.70;;;;;;5015709;28;20232;-81
2023/12/02 01:04:22;;;;;;;5.53;5.03;;;16.20;42.80;;;;;;5015485;28;20216;-81
2023/12/02 01:06:49;;;;;;;4.80;4.40;;;16.20;42.70;;;;;;5015304;28;20201;-80
2023/12/02 01:09:16;;;;;;;4.95;4.55;;;16.20;42.70;;;;;;5015264;28;20205;-80
2023/12/02 01:11:45;;;;;;;5.75;5.22;;;16.20;43.40;;;;;;5015859;28;20216;-80
2023/12/02 01:14:12;;;;;;;5.78;5.25;;;16.20;42.70;;;;;;5015933;28;20226;-80
2023/12/02 01:16:39;;;;;;;5.40;4.90;;;16.20;42.70;;;;;;5016445;28;20271;-80
2023/12/02 01:19:06;;;;;;;5.05;4.55;;;16.20;42.70;;;;;;5022023;28;20251;-79
2023/12/02 01:21:33;;;;;;;4.70;4.30;;;16.20;42.60;;;;;;5029123;28;20223;-79
2023/12/02 01:24:00;;;;;;;5.35;4.85;;;16.20;42.60;;;;;;5026017;28;20775;-80
2023/12/02 01:26:27;;;;;;;5.47;4.93;;;16.20;42.60;;;;;;5023341;28;20197;-80
2023/12/02 01:28:56;;;;;;;5.40;4.90;;;16.20;42.50;;;;;;5022551;28;20197;-81
2023/12/02 01:31:23;;;;;;;5.88;5.28;;;16.20;42.70;;;;;;5022585;28;20239;-80
2023/12/02 01:33:50;;;;;;;4.85;4.35;;;16.20;42.70;;;;;;5021962;28;20347;-80
2023/12/02 01:36:17;;;;;;;5.72;5.10;;;16.20;42.70;;;;;;5018661;28;20246;-80
2023/12/02 01:38:44;;;;;;;6.22;5.63;;;16.20;43.20;;;;;;5015222;28;20252;-80
2023/12/02 01:41:11;;;;;;;4.72;4.32;;;16.20;42.60;;;;;;5015390;28;20204;-80
2023/12/02 01:50:10;;;;;;;5.78;5.18;;;16.20;42.70;;;;;;5015838;28;20678;-83
2023/12/02 01:52:37;;;;;;;6.20;5.60;;;16.20;42.60;;;;;;5014189;28;20545;-83
2023/12/02 01:55:05;;;;;;;5.75;5.25;;;16.20;42.60;;;;;;5014099;28;20263;-83
2023/12/02 01:57:31;;;;;;;5.95;5.45;;;16.20;42.70;;;;;;5014236;28;20753;-81
2023/12/02 01:59:58;;;;;;;5.40;4.90;;;16.10;42.60;;;;;;5014448;28;20205;-80
2023/12/02 02:02:26;;;;;;;6.28;5.68;;;16.20;42.60;;;;;;5014813;28;20208;-80
2023/12/02 02:04:53;;;;;;;5.40;4.90;;;16.20;42.70;;;;;;5014689;28;20220;-80
2023/12/02 02:07:21;;;;;;;5.43;4.93;;;16.20;42.60;;;;;;5014284;28;20620;-80
2023/12/02 02:09:48;;;;;;;5.75;5.25;;;16.20;42.70;;;;;;5014450;28;20251;-80
2023/12/02 02:12:16;;;;;;;4.90;4.50;;;16.20;42.70;;;;;;5014946;28;20207;-81
2023/12/02 02:14:42;;;;;;;5.20;4.70;;;16.10;42.60;;;;;;5014972;28;20192;-81
2023/12/02 02:17:10;;;;;;;5.70;5.15;;;16.20;42.70;;;;;;5014107;28;20728;-81
2023/12/02 02:19:36;;;;;;;6.22;5.63;;;16.20;42.70;;;;;;5014487;28;20207;-81
2023/12/02 02:22:05;;;;;;;5.80;5.25;;;16.20;42.60;;;;;;5014800;28;20196;-81
2023/12/02 02:24:33;;;;;;;5.43;4.93;;;16.20;42.50;;;;;;4998544;28;20224;-81
2023/12/02 02:27:00;;;;;;;6.47;5.88;;;16.20;42.30;;;;;;5015350;28;20263;-81
2023/12/02 02:29:27;;;;;;;6.13;5.40;;;16.20;42.60;;;;;;4998137;28;20247;-81
2023/12/02 02:31:54;;;;;;;5.30;4.85;;;16.20;42.60;;;;;;5014529;28;20209;-81
2023/12/02 02:34:21;;;;;;;5.18;4.68;;;16.20;42.60;;;;;;5015063;28;20197;-81
2023/12/02 02:36:48;;;;;;;5.32;4.82;;;16.20;42.60;;;;;;5124689;22;20221;-82
2023/12/02 02:39:17;;;;;;;5.20;4.80;;;16.20;42.60;;;;;;5015357;28;20220;-82
2023/12/02 02:41:44;;;;;;;6.03;5.50;;;16.20;42.60;;;;;;5017176;28;20189;-82
2023/12/02 02:44:11;;;;;;;5.50;5.00;;;16.20;42.60;;;;;;5000200;28;20600;-82
2023/12/02 02:46:38;;;;;;;6.53;5.93;;;16.20;42.60;;;;;;5000361;28;20226;-82
2023/12/02 02:49:05;;;;;;;6.05;5.45;;;16.20;42.60;;;;;;5015493;28;20288;-82
2023/12/02 02:51:32;;;;;;;5.50;5.00;;;16.10;42.60;;;;;;5016417;28;20201;-82
2023/12/02 02:53:59;;;;;;;5.85;5.25;;;16.10;42.50;;;;;;5016158;28;20247;-82
2023/12/02 02:56:29;;;;;;;5.97;5.47;;;16.20;42.60;;;;;;5016637;28;20224;-82
2023/12/02 02:58:56;;;;;;;6.13;5.53;;;16.10;42.60;;;;;;5016159;28;20212;-82
2023/12/02 03:01:23;;;;;;;5.75;5.15;;;16.20;42.60;;;;;;5015875;28;20201;-82
2023/12/02 03:03:50;;;;;;;6.15;5.55;;;16.10;42.50;;;;;;5015673;28;20201;-82
2023/12/02 03:06:18;;;;;;;6.15;5.55;;;16.10;42.60;;;;;;5026637;28;20223;-82
2023/12/02 03:08:45;;;;;;;6.20;5.63;;;16.20;42.60;;;;;;5125699;23;20211;-79
2023/12/02 03:11:12;;;;;;;5.75;5.25;;;16.20;42.60;;;;;;5025728;28;20200;-81
2023/12/02 03:13:40;;;;;;;5.60;5.10;;;16.20;42.60;;;;;;5022894;28;20201;-80
2023/12/02 03:16:08;;;;;;;5.20;4.70;;;16.20;42.70;;;;;;5021011;28;20225;-80
2023/12/02 03:18:35;;;;;;;6.38;5.78;;;16.20;42.50;;;;;;5018382;28;20220;-79
2023/12/02 03:21:03;;;;;;;6.20;5.60;;;16.20;42.50;;;;;;5013489;28;20205;-80
2023/12/02 03:23:30;;;;;;;5.53;5.03;;;16.20;42.30;;;;;;4997766;28;20201;-80
2023/12/02 03:25:57;;;;;;;5.38;4.88;;;16.20;42.20;;;;;;5013394;28;20290;-80
2023/12/02 03:28:24;;;;;;;5.72;5.22;;;16.20;42.30;;;;;;5013740;28;20287;-81
2023/12/02 03:30:52;;;;;;;5.82;5.25;;;16.20;42.30;;;;;;5013831;28;20208;-80
2023/12/02 03:33:20;;;;;;;5.57;5.07;;;16.20;42.30;;;;;;4997151;28;20205;-80
2023/12/02 03:35:47;;;;;;;6.05;5.45;;;16.20;42.30;;;;;;5013508;28;20228;-80
2023/12/02 03:38:14;;;;;;;5.65;5.15;;;16.20;42.30;;;;;;5014230;28;20213;-81
2023/12/02 03:40:41;;;;;;;5.72;5.05;;;16.20;43.00;;;;;;5014183;28;20627;-80
2023/12/02 03:43:09;;;;;;;6.10;5.50;;;16.20;42.30;;;;;;5013716;28;20200;-80
2023/12/02 03:45:36;;;;;;;5.72;5.22;;;16.20;42.30;;;;;;5013476;28;20230;-80
2023/12/02 03:48:05;;;;;;;5.55;4.97;;;16.20;42.30;;;;;;5015375;28;20205;-80
2023/12/02 03:50:32;;;;;;;5.13;4.70;;;16.20;42.30;;;;;;5016977;28;20193;-80
2023/12/02 03:53:00;;;;;;;7.32;6.38;;;16.20;42.40;;;;;;5019753;28;20207;-80
2023/12/02 03:55:27;;;;;;;7.10;6.35;;;16.20;42.30;;;;;;5019006;28;20239;-80
2023/12/02 03:57:54;;;;;;;5.45;4.95;;;16.20;42.50;;;;;;5017457;28;20196;-80
2023/12/02 04:00:21;;;;;;;5.30;4.80;;;16.20;42.40;;;;;;5018005;28;20197;-80
2023/12/02 04:02:49;;;;;;;4.47;4.07;;;16.20;42.40;;;;;;5017394;28;20529;-80
2023/12/02 04:05:18;;;;;;;5.60;5.10;;;16.20;42.50;;;;;;5001446;28;20726;-80
2023/12/02 04:07:44;;;;;;;5.07;4.63;;;16.20;42.50;;;;;;5018973;28;20697;-80
2023/12/02 04:10:11;;;;;;;5.40;4.90;;;16.20;42.50;;;;;;5018363;28;20219;-80
2023/12/02 04:12:41;;;;;;;5.20;4.78;;;16.20;42.40;;;;;;5018889;28;20236;-80
2023/12/02 04:15:08;;;;;;;5.32;4.82;;;16.20;42.40;;;;;;5018817;28;20225;-80
2023/12/02 04:17:35;;;;;;;5.25;4.78;;;16.10;42.40;;;;;;5018581;28;20203;-80
2023/12/02 04:20:08;;;;;;;5.38;4.88;;;16.10;42.30;;;;;;5018012;28;20271;-80
2023/12/02 04:22:38;;;;;;;5.28;4.78;;;16.10;42.30;;;;;;5018390;28;20270;-80
2023/12/02 04:25:06;;;;;;;5.72;5.22;;;16.10;42.40;;;;;;5018005;28;20625;-80
2023/12/02 04:27:33;;;;;;;6.10;5.50;;;16.10;42.30;;;;;;5017770;28;20203;-80
2023/12/02 04:30:00;;;;;;;6.22;5.63;;;16.10;42.30;;;;;;5017855;28;20203;-80
2023/12/02 04:32:27;;;;;;;5.82;5.25;;;16.10;42.20;;;;;;5017275;28;20211;-80
2023/12/02 04:34:55;;;;;;;5.95;5.35;;;16.00;42.20;;;;;;5017455;28;20232;-80
2023/12/02 04:37:24;;;;;;;5.43;4.93;;;16.00;42.50;;;;;;5017143;28;20197;-80
2023/12/02 04:39:53;;;;;;;6.18;5.57;;;16.00;42.50;;;;;;5016846;28;20232;-80
2023/12/02 04:42:20;;;;;;;5.55;5.05;;;15.90;42.40;;;;;;5016725;28;20201;-80
2023/12/02 04:44:47;;;;;;;5.70;5.20;;;15.90;42.50;;;;;;5000308;28;20217;-80
2023/12/02 04:47:14;;;;;;;6.28;5.70;;;15.80;42.50;;;;;;5020801;28;20197;-80
2023/12/02 04:49:41;;;;;;;5.00;4.60;;;15.90;42.50;;;;;;5023383;28;20236;-80
2023/12/02 04:52:09;;;;;;;5.10;4.63;;;15.90;42.50;;;;;;5023596;28;20674;-80
2023/12/02 04:54:36;;;;;;;5.85;5.20;;;16.00;42.60;;;;;;4989499;28;20209;-81
2023/12/02 04:57:06;;;;;;;5.40;4.90;;;16.00;42.60;;;;;;5019734;28;20581;-80
2023/12/02 04:59:33;;;;;;;5.10;4.60;;;16.00;42.60;;;;;;5015975;28;20213;-81
2023/12/02 05:02:00;;;;;;;5.28;4.78;;;16.10;42.60;;;;;;5016334;28;20251;-81
2023/12/02 05:04:27;;;;;;;5.25;4.78;;;16.00;42.60;;;;;;5000056;28;20215;-80
2023/12/02 05:06:54;;;;;;;4.90;4.45;;;16.00;42.60;;;;;;5022064;28;20201;-81
2023/12/02 05:09:21;;;;;;;5.38;4.88;;;16.00;42.60;;;;;;5020766;28;20212;-80
2023/12/02 05:11:48;;;;;;;4.60;4.20;;;16.00;42.60;;;;;;5005004;28;20223;-81
2023/12/02 05:14:17;;;;;;;5.22;4.78;;;16.00;42.60;;;;;;5003341;28;20546;-81
2023/12/02 05:16:44;;;;;;;4.85;4.45;;;16.00;42.50;;;;;;5019236;28;20300;-81
2023/12/02 05:19:11;;;;;;;5.00;4.60;;;16.00;43.00;;;;;;5019569;28;20251;-81
2023/12/02 05:21:38;;;;;;;4.90;4.40;;;16.00;42.50;;;;;;5018934;28;20641;-81
2023/12/02 05:24:06;;;;;;;5.20;4.70;;;16.00;42.50;;;;;;5019043;28;20648;-80
2023/12/02 05:26:33;;;;;;;4.93;4.43;;;16.00;42.50;;;;;;5019270;28;20221;-81
2023/12/02 05:29:00;;;;;;;4.65;4.25;;;16.10;42.60;;;;;;5018990;28;20193;-81
2023/12/02 05:31:29;;;;;;;4.60;4.20;;;16.00;42.50;;;;;;5019043;28;20633;-81
2023/12/02 05:33:56;;;;;;;4.70;4.30;;;16.10;42.60;;;;;;5018994;28;20228;-81
2023/12/02 05:36:23;;;;;;;4.50;4.10;;;16.10;42.40;;;;;;5002234;28;20221;-81
2023/12/02 05:38:51;;;;;;;4.53;4.13;;;16.10;42.40;;;;;;5017839;28;20259;-80
2023/12/02 05:41:17;;;;;;;4.32;4.00;;;16.10;42.30;;;;;;5018521;28;20204;-80
2023/12/02 05:43:45;;;;;;;4.68;4.28;;;16.10;42.10;;;;;;5018516;28;20678;-80
2023/12/02 05:46:15;;;;;;;4.82;4.32;;;16.10;42.20;;;;;;5001154;28;20409;-80
2023/12/02 05:48:44;;;;;;;4.50;4.10;;;16.10;42.30;;;;;;5017333;28;20193;-80
2023/12/02 05:51:12;;;;;;;4.35;3.95;;;16.10;42.20;;;;;;5017395;28;20292;-80
2023/12/02 05:53:40;;;;;;;4.82;4.43;;;16.10;42.10;;;;;;5017696;28;20197;-80
2023/12/02 05:56:08;;;;;;;5.00;4.55;;;16.10;42.20;;;;;;5017957;28;20686;-81
2023/12/02 05:58:35;;;;;;;4.55;4.15;;;16.10;42.30;;;;;;5015863;28;20201;-81
2023/12/02 06:01:02;;;;;;;4.10;3.78;;;16.10;42.20;;;;;;5014906;28;20204;-81
2023/12/02 06:03:29;;;;;;;4.75;4.35;;;16.10;42.30;;;;;;5015406;28;20228;-81
2023/12/02 06:05:58;;;;;;;4.63;4.30;;;16.00;42.30;;;;;;5015568;28;20227;-80
2023/12/02 06:08:25;;;;;;;5.45;4.95;;;16.00;42.20;;;;;;5016768;28;20308;-80
2023/12/02 06:10:56;;;;;;;4.40;4.00;;;16.10;42.20;;;;;;5015951;28;20579;-80
2023/12/02 06:13:23;;;;;;;4.38;3.97;;;16.00;42.10;;;;;;5022776;28;20212;-80
2023/12/02 06:15:50;;;;;;;4.43;4.05;;;16.00;42.20;;;;;;5023495;28;20217;-80
2023/12/02 06:18:18;;;;;;;4.80;4.40;;;16.10;42.30;;;;;;5025469;28;20205;-80
2023/12/02 06:20:45;;;;;;;4.43;4.03;;;16.10;42.30;;;;;;5007988;28;20219;-80
2023/12/02 06:23:13;;;;;;;4.43;4.03;;;16.10;42.20;;;;;;5022133;28;20205;-80
2023/12/02 06:25:40;;;;;;;4.65;4.25;;;16.10;42.20;;;;;;5020304;28;20263;-80
2023/12/02 06:28:08;;;;;;;3.90;3.60;;;16.10;42.20;;;;;;5020359;28;20666;-80
2023/12/02 06:30:35;;;;;;;3.92;3.63;;;16.10;42.30;;;;;;5018873;28;20196;-80
2023/12/02 06:33:03;;;;;;;4.68;4.28;;;16.00;42.10;;;;;;5002086;28;20207;-81
2023/12/02 06:35:30;;;;;;;4.13;3.83;;;16.10;42.20;;;;;;5018055;28;20216;-80
2023/12/02 06:37:57;;;;;;;4.45;4.05;;;16.10;42.10;;;;;;5017405;28;20205;-80
2023/12/02 06:40:25;;;;;;;4.70;4.28;;;16.10;42.10;;;;;;5016879;28;20307;-81
2023/12/02 06:42:52;;;;;;;4.57;4.18;;;16.10;42.00;;;;;;5015388;28;20211;-80
2023/12/02 06:45:19;;;;;;;4.22;3.83;;;16.00;42.10;;;;;;5015430;28;20216;-80
2023/12/02 06:47:46;;;;;;;4.60;4.20;;;16.10;42.10;;;;;;5016694;28;20287;-80
2023/12/02 06:50:12;;;;;;;4.07;3.78;;;16.10;42.10;;;;;;5027594;28;20197;-80
2023/12/02 06:52:39;;;;;;;4.55;4.15;;;16.10;42.10;;;;;;5027158;28;20235;-80
2023/12/02 06:55:09;;;;;;;4.07;3.78;;;16.10;42.10;;;;;;5023356;28;20220;-80
2023/12/02 06:57:37;;;;;;;4.55;4.15;;;16.10;42.10;;;;;;5020759;28;20694;-80
2023/12/02 07:00:06;;;;;;;4.07;3.70;;;16.10;41.90;;;;;;5013538;28;20588;-80
2023/12/02 07:02:33;;;;;;;4.50;4.10;;;16.10;42.10;;;;;;5013764;28;20209;-80
2023/12/02 07:05:00;;;;;;;4.65;4.25;;;16.10;42.10;;;;;;5015402;28;20220;-80
2023/12/02 07:07:27;;;;;;;4.30;3.90;;;16.00;42.00;;;;;;5016994;28;20235;-80
2023/12/02 07:09:54;;;;;;;4.45;4.05;;;16.00;41.90;;;;;;4998330;28;20567;-81
2023/12/02 07:12:21;;;;;;;4.88;4.38;;;16.00;41.80;;;;;;5013544;28;20204;-80
2023/12/02 07:14:50;;;;;;;4.47;4.07;;;16.00;41.90;;;;;;5014012;28;20221;-80
2023/12/02 07:17:18;;;;;;;4.50;4.10;;;16.00;41.90;;;;;;5014196;28;20201;-81
2023/12/02 07:19:45;;;;;;;4.18;3.88;;;16.00;42.20;;;;;;5014042;28;20243;-80
2023/12/02 07:22:12;;;;;;;4.47;4.07;;;16.00;42.30;;;;;;5013570;28;20201;-80
2023/12/02 07:24:39;;;;;;;4.85;4.45;;;16.00;42.30;;;;;;5013753;28;20200;-80
2023/12/02 07:27:06;;;;;;;4.50;4.10;;;16.00;42.20;;;;;;4999173;28;20264;-80
2023/12/02 07:29:33;;;;;;;4.22;3.92;;;15.90;42.20;;;;;;5020579;28;20189;-80
2023/12/02 07:32:01;;;;;;;4.22;3.92;;;16.00;42.90;;;;;;5022406;28;20283;-80
2023/12/02 07:34:29;;;;;;;4.20;3.80;;;16.00;42.20;;;;;;5021070;28;20228;-80
2023/12/02 07:36:56;;;;;;;4.55;4.15;;;16.00;42.10;;;;;;5003144;28;20203;-80
2023/12/02 07:39:23;;;;;;;4.50;4.10;;;16.00;42.00;;;;;;5019081;28;20310;-80
2023/12/02 07:41:50;;;;;;;4.28;3.97;;;16.00;42.00;;;;;;5002785;28;20268;-80
2023/12/02 07:44:18;;;;;;;4.22;3.83;;;16.00;42.10;;;;;;5019080;28;20205;-80
2023/12/02 07:46:45;;;;;;;4.22;3.83;;;16.10;42.00;;;;;;5018902;28;20216;-80
2023/12/02 07:49:13;;;;;;;4.57;4.18;;;16.00;41.90;;;;;;5003050;28;20201;-80
2023/12/02 07:51:40;;;;;;;4.38;3.97;;;16.00;41.90;;;;;;5018953;28;20288;-80
2023/12/02 07:54:07;;;;;;;4.25;3.85;;;16.00;41.80;;;;;;5002778;28;20224;-80
2023/12/02 07:56:36;;;;;;;4.78;4.32;;;16.00;42.00;;;;;;5018851;28;20255;-80
2023/12/02 07:59:03;;;;;;;4.28;3.88;;;16.00;41.90;;;;;;5017839;28;20630;-80
2023/12/02 08:01:31;;;;;;;3.63;3.33;;;16.00;41.90;;;;;;5000538;28;20224;-80
2023/12/02 08:03:58;;;;;;;3.95;3.58;;;16.00;41.90;;;;;;5016703;28;20588;-80
2023/12/02 08:06:26;;;;;;;4.63;4.22;;;16.00;41.80;;;;;;5016443;28;20225;-80
2023/12/02 08:08:53;;;;;;;4.00;3.67;;;16.10;41.90;;;;;;5017233;28;20209;-80
2023/12/02 08:11:21;;;;;;;4.40;4.00;;;16.10;41.80;;;;;;5017911;28;20679;-80
2023/12/02 08:13:48;;;;;;;4.63;4.20;;;16.10;41.80;;;;;;5018824;28;20201;-80
2023/12/02 08:16:16;;;;;;;4.18;3.78;;;16.10;41.80;;;;;;5017858;28;20220;-80
2023/12/02 08:18:43;;;;;;;4.13;3.83;;;16.10;41.70;;;;;;5001420;28;20287;-80
2023/12/02 08:21:10;;;;;;;4.30;3.90;;;16.10;41.70;;;;;;4985212;28;20232;-80
2023/12/02 08:23:38;;;;;;;4.38;3.97;;;16.10;41.60;;;;;;5017384;28;20199;-80
2023/12/02 08:26:06;;;;;;;4.38;3.97;;;16.10;41.60;;;;;;5017476;28;20267;-80
2023/12/02 08:28:33;;;;;;;4.43;4.03;;;16.10;41.50;;;;;;5017575;28;20218;-80
2023/12/02 08:31:00;;;;;;;4.05;3.75;;;16.10;41.50;;;;;;5017406;28;20192;-80
2023/12/02 08:33:27;;;;;;;4.18;3.80;;;16.10;41.50;;;;;;5017914;28;20204;-80
2023/12/02 08:35:54;;;;;;;4.40;4.00;;;16.10;41.40;;;;;;5016881;28;20637;-80
2023/12/02 08:38:21;;;;;;;4.63;4.22;;;16.10;41.30;;;;;;5018617;28;20212;-80
2023/12/02 08:40:50;;;;;;;5.10;4.60;;;16.10;41.40;;;;;;5021300;28;20651;-80
2023/12/02 08:43:17;;;;;;;4.90;4.50;;;16.10;41.50;;;;;;5023146;28;20284;-79
2023/12/02 08:45:44;;;;;;;4.43;4.03;;;16.10;41.50;;;;;;5024342;28;20236;-80
2023/12/02 08:48:11;;;;;;;4.45;4.05;;;16.10;41.60;;;;;;5024472;28;20200;-80
2023/12/02 08:50:38;;;;;;;4.53;4.13;;;16.10;41.40;;;;;;5022874;28;20201;-80
2023/12/02 08:53:05;;;;;;;4.32;3.92;;;16.10;41.40;;;;;;5021941;28;20259;-80
2023/12/02 08:55:33;;;;;;;4.68;4.22;;;16.10;41.40;;;;;;5021996;28;20228;-80
2023/12/02 08:58:02;;;;;;;4.43;4.03;;;16.10;41.60;;;;;;5021281;28;20659;-80
2023/12/02 09:00:30;;;;;;;4.55;4.15;;;16.10;42.20;;;;;;5015491;28;20240;-80
2023/12/02 09:02:57;;;;;;;4.97;4.53;;;16.10;41.50;;;;;;5016142;28;20196;-80
2023/12/02 09:05:24;;;;;;;4.70;4.30;;;16.00;41.50;;;;;;5015799;28;20580;-80
2023/12/02 09:07:51;;;;;;;4.50;4.10;;;16.10;41.50;;;;;;5015765;28;20204;-81
2023/12/02 09:10:19;;;;;;;4.85;4.45;;;16.10;41.50;;;;;;5016188;28;20268;-80
2023/12/02 09:12:46;;;;;;;4.30;3.97;;;16.10;41.50;;;;;;5016495;28;20200;-80
2023/12/02 09:15:38;;;;;;;4.85;4.35;;;16.00;41.50;;;;;;5015822;28;20221;-80
2023/12/02 09:18:10;;;;;;;4.90;4.40;;;16.10;41.60;;;;;;5015862;28;20254;-80
2023/12/02 09:20:43;;;;;;;4.70;4.30;;;16.00;41.50;;;;;;5016640;28;20258;-80
2023/12/02 09:23:10;;;;;;;4.75;4.35;;;16.10;41.60;;;;;;5016041;28;20647;-80
2023/12/02 09:25:38;;;;;;;4.53;4.13;;;16.10;41.50;;;;;;5015134;28;20223;-80
2023/12/02 09:28:19;;;;;;;4.05;3.70;;;16.10;41.60;;;;;;5015504;28;20204;-81
2023/12/02 09:30:55;;;;;;;4.80;4.40;;;16.10;41.50;;;;;;5016318;28;20239;-80
2023/12/02 09:33:22;;;;;;;4.38;3.95;;;16.10;41.60;;;;;;5015307;28;20243;-80
2023/12/02 09:35:53;;;;;;;4.55;4.15;;;16.10;41.30;;;;;;4998952;28;20220;-80
2023/12/02 09:38:20;;;;;;;4.47;4.07;;;16.20;41.30;;;;;;5015302;28;20196;-80
2023/12/02 09:41:06;;;;;;;4.45;4.05;;;16.10;41.20;;;;;;5015366;28;20220;-80
2023/12/02 09:43:34;;;;;;;5.07;4.57;;;16.20;41.50;;;;;;5015055;28;20223;-81
2023/12/02 09:46:19;;;;;;;5.30;4.50;;;16.20;41.40;;;;;;4998980;28;20225;-81
2023/12/02 09:48:53;;;;;;;4.00;3.70;;;16.10;41.20;;;;;;5015504;28;20236;-81
2023/12/02 09:51:25;;;;;;;5.03;4.55;;;16.10;41.20;;;;;;5014097;28;20219;-80
2023/12/02 09:53:55;;;;;;;4.70;4.30;;;16.10;41.30;;;;;;5016430;28;20208;-80
2023/12/02 09:56:25;;;;;;;4.50;4.10;;;16.10;41.50;;;;;;5016148;28;20213;-80
2023/12/02 09:58:55;;;;;;;4.50;4.10;;;16.10;41.50;;;;;;5015444;28;20201;-80
2023/12/02 10:01:27;;;;;;;4.85;4.40;;;16.10;41.50;;;;;;4998460;28;20219;-80
2023/12/02 10:04:03;;;;;;;4.75;4.35;;;16.10;41.50;;;;;;5015137;28;20205;-80
2023/12/02 10:06:42;;;;;;;4.75;4.35;;;16.10;41.60;;;;;;5014821;28;20220;-80
2023/12/02 10:09:18;;;;;;;4.30;3.90;;;16.00;41.50;;;;;;5015362;28;20618;-80
2023/12/02 10:11:49;;;;;;;4.03;3.65;;;16.10;41.60;;;;;;5014386;28;20279;-80
2023/12/02 10:14:17;;;;;;;3.97;3.67;;;16.10;41.60;;;;;;4998968;28;20193;-80
2023/12/02 10:16:45;;;;;;;4.32;3.92;;;16.10;41.60;;;;;;5014517;28;20315;-80
2023/12/02 10:19:15;;;;;;;4.05;3.75;;;16.10;41.50;;;;;;5014416;28;20197;-80
2023/12/02 10:21:46;;;;;;;4.55;4.15;;;16.20;41.40;;;;;;5014191;28;20208;-80
2023/12/02 10:24:13;;;;;;;4.30;3.90;;;16.10;41.20;;;;;;5019145;28;20548;-80
2023/12/02 10:26:43;;;;;;;4.60;4.20;;;16.20;41.30;;;;;;5013938;28;20231;-80
2023/12/02 10:29:14;;;;;;;4.22;3.83;;;16.20;41.20;;;;;;4998206;28;20734;-80
2023/12/02 10:31:45;;;;;;;4.47;4.07;;;16.20;41.30;;;;;;5025230;28;20188;-79
2023/12/02 10:34:23;;;;;;;4.95;4.45;;;16.20;41.30;;;;;;5028534;28;20264;-79
2023/12/02 10:36:50;;;;;;;4.82;4.43;;;16.20;41.10;;;;;;5017234;28;20231;-81
2023/12/02 10:39:20;;;;;;;4.53;4.15;;;16.20;41.20;;;;;;5022023;28;20200;-80
2023/12/02 10:41:51;;;;;;;4.00;3.67;;;16.20;41.20;;;;;;5023501;28;20564;-80
2023/12/02 10:44:21;;;;;;;4.53;4.13;;;16.20;41.20;;;;;;5015692;28;20200;-80
2023/12/02 10:46:50;;;;;;;4.00;3.60;;;16.20;41.10;;;;;;4999155;28;20217;-80
2023/12/02 10:49:17;;;;;;;4.20;3.80;;;16.20;41.20;;;;;;5015579;28;20202;-80
2023/12/02 10:51:44;;;;;;;3.90;3.60;;;16.20;41.10;;;;;;5015205;28;20207;-80
2023/12/02 10:54:15;;;;;;;4.45;4.05;;;16.20;41.00;;;;;;5015661;28;20200;-80
2023/12/02 10:56:42;;;;;;;4.30;3.90;;;16.20;41.00;;;;;;5015572;28;20220;-80
2023/12/02 10:59:09;;;;;;;4.40;4.00;;;16.30;41.00;;;;;;5015789;28;20211;-80
2023/12/02 11:01:38;;;;;;;4.43;4.03;;;16.30;41.10;;;;;;5015479;28;20223;-80
2023/12/02 11:04:11;;;;;;;3.90;3.60;;;16.30;41.00;;;;;;5015534;28;20240;-80
2023/12/02 11:06:38;;;;;;;3.92;3.63;;;16.30;41.10;;;;;;5015077;28;20307;-80
2023/12/02 11:09:10;;;;;;;3.85;3.55;;;16.20;40.90;;;;;;5014599;28;20227;-81
2023/12/02 11:11:44;;;;;;;3.60;3.30;;;16.30;41.00;;;;;;5014357;28;20231;-80
2023/12/02 11:14:12;;;;;;;4.30;3.90;;;16.30;40.80;;;;;;5013977;28;20201;-80
2023/12/02 11:16:41;;;;;;;4.25;3.95;;;16.30;41.00;;;;;;5013849;28;20209;-80
2023/12/02 11:19:24;;;;;;;4.40;4.00;;;16.30;40.80;;;;;;5013269;28;20192;-80
2023/12/02 11:22:02;;;;;;;4.07;3.78;;;16.30;40.80;;;;;;5013142;28;20227;-81
2023/12/02 11:24:34;;;;;;;4.47;4.07;;;16.30;40.80;;;;;;5012962;28;20212;-80
2023/12/02 11:27:18;;;;;;;4.07;3.70;;;16.30;41.50;;;;;;5014111;28;20221;-80
2023/12/02 11:29:51;;;;;;;4.28;3.88;;;16.30;40.70;;;;;;5012937;28;20211;-80
2023/12/02 11:32:21;;;;;;;4.43;4.03;;;16.30;40.90;;;;;;5013373;28;20192;-80
2023/12/02 11:35:08;;;;;;;4.28;3.88;;;16.30;40.80;;;;;;5013258;28;20220;-80
2023/12/02 11:37:45;;;;;;;4.20;3.83;;;16.30;40.80;;;;;;5013391;28;20295;-81
2023/12/02 11:40:14;;;;;;;3.92;3.60;;;16.40;40.90;;;;;;5013366;28;20192;-80
2023/12/02 11:42:45;;;;;;;4.40;4.00;;;16.30;40.70;;;;;;5017341;28;20264;-80
2023/12/02 11:45:17;;;;;;;4.07;3.67;;;16.30;40.70;;;;;;5018210;28;20220;-80
2023/12/02 11:47:52;;;;;;;4.65;3.70;;;16.30;40.70;;;;;;5013314;28;20212;-80
2023/12/02 11:50:30;;;;;;;4.10;3.70;;;16.30;40.80;;;;;;5015202;28;20196;-80
2023/12/02 11:53:07;;;;;;;3.80;3.50;;;16.30;40.70;;;;;;5015322;28;20192;-80
2023/12/02 11:55:38;;;;;;;4.03;3.72;;;16.30;40.70;;;;;;5014530;28;20640;-81
2023/12/02 11:58:11;;;;;;;4.05;3.65;;;16.30;40.80;;;;;;5014848;28;20299;-80
2023/12/02 12:00:47;;;;;;;3.50;3.20;;;16.30;40.70;;;;;;5014127;28;20725;-81
2023/12/02 12:03:30;;;;;;;3.85;3.55;;;16.30;40.70;;;;;;5014880;28;20239;-81
2023/12/02 12:06:04;;;;;;;3.35;3.05;;;16.30;40.60;;;;;;5014370;28;20300;-81
2023/12/02 12:08:33;;;;;;;3.83;3.53;;;16.40;40.70;;;;;;5013277;28;20627;-80
2023/12/02 12:11:01;;;;;;;4.05;3.75;;;16.40;40.70;;;;;;5013525;28;20283;-80
2023/12/02 12:13:28;;;;;;;4.65;4.25;;;16.30;40.60;;;;;;5013612;28;20643;-80
2023/12/02 12:15:55;;;;;;;3.88;3.58;;;16.30;40.60;;;;;;5000836;28;20227;-81
2023/12/02 12:18:22;;;;;;;4.00;3.70;;;16.30;40.70;;;;;;5020291;28;20280;-81
2023/12/02 12:20:54;;;;;;;4.03;3.63;;;16.30;40.80;;;;;;5020395;28;20284;-81
2023/12/02 12:23:25;;;;;;;3.97;3.67;;;16.30;40.90;;;;;;5019976;28;20647;-81
2023/12/02 12:25:52;;;;;;;3.90;3.47;;;16.30;40.80;;;;;;5019663;28;20227;-81
2023/12/02 12:28:18;;;;;;;3.72;3.20;;;16.30;40.80;;;;;;5021128;28;20220;-81
2023/12/02 12:30:46;;;;;;;3.50;3.20;;;16.30;41.40;;;;;;5019848;28;20299;-81
2023/12/02 12:33:13;;;;;;;3.70;3.38;;;16.30;40.90;;;;;;5019347;28;20201;-81
2023/12/02 12:35:40;;;;;;;3.88;3.50;;;16.30;40.80;;;;;;5003188;28;20228;-81
2023/12/02 12:38:09;;;;;;;3.70;3.40;;;16.30;40.80;;;;;;5018885;28;20203;-81
2023/12/02 12:40:37;;;;;;;3.28;3.00;;;16.30;40.60;;;;;;5019296;28;20251;-81
2023/12/02 12:43:04;;;;;;;3.70;3.40;;;16.30;40.70;;;;;;5018430;28;20196;-81
2023/12/02 12:45:32;;;;;;;3.53;3.22;;;16.30;40.60;;;;;;5016343;28;20229;-81
2023/12/02 12:48:00;;;;;;;3.60;3.30;;;16.30;40.60;;;;;;5016668;28;20200;-81
2023/12/02 12:50:29;;;;;;;3.80;3.40;;;16.30;40.60;;;;;;5017886;28;20255;-81
2023/12/02 12:52:58;;;;;;;3.35;3.05;;;16.30;40.60;;;;;;5018716;28;20208;-81
2023/12/02 12:55:25;;;;;;;3.67;3.10;;;16.30;40.50;;;;;;5018331;28;20224;-81
2023/12/02 12:57:57;;;;;;;3.40;3.10;;;16.30;40.50;;;;;;5019143;28;20266;-81
2023/12/02 13:00:25;;;;;;;3.70;3.40;;;16.30;40.50;;;;;;5019366;28;20567;-81